Share

Abidjan, Ivory Coast

Felix Houphouet-Boigny (DIAP) Elev 26 ft | 5.26 °N, 3.93 °W | Change Station

Current weather conditions updated 20 minutes ago

Mostly Cloudy
Mostly Cloudy
84 °F
Feels Like 92 °F
N
5
Wind Variable Wind from East
Sunrise 6:06 AM
Sunset 6:22 PM
Moon Waning Gibbous

Today is forecast to be Cooler than yesterday. Scattered thunderstorms.

Pressure 29.83 in
Visibility 6.2 miles
Clouds Few 1200 ft
Mostly Cloudy 10000 ft
Heat Index 92 °F
Dew Point 75 °F
Humidity 74%
Rainfall 0.00 in
Snow Depth Not available.
UV 8 out of 16
Pollen Not available.
Air Quality Not available.
Flu Activity Not available.
METAR DIAP 211100Z 09004KT 030V140 9999 FEW012 BKN100 29/24 Q1010 NOSIG

More Conditions Fewer Conditions

Pressure 29.83 in
Visibility 6.2 miles
Clouds Few 1200 ft
Mostly Cloudy 10000 ft
Heat Index 92 °F
Dew Point 75 °F
Humidity 74%
Rainfall 0.00 in
Snow Depth Not available.
UV 8 out of 16
Pollen Not available.
Air Quality Not available.
Flu Activity Not available.
METAR DIAP 211100Z 09004KT 030V140 9999 FEW012 BKN100 29/24 Q1010 NOSIG

More Conditions Fewer Conditions

10-Day Weather Forecast

Almanac

Astronomy

Apr. 21, 2014 Rise Set
Actual Time 6:06 AM GMT 6:22 PM GMT
Civil Twilight 5:45 AM GMT 6:43 PM GMT
Nautical Twilight 5:20 AM GMT 7:08 PM GMT
Astronomical Twilight 4:55 AM GMT 7:33 PM GMT
Moon No Moon Rise 11:34 AM GMT
Length of Visible Light 12h 58m
Length of Day
12h 15m
Tomorrow will be 0m 16s longer.
Waning Gibbous, 60% of the Moon is Illuminated
Today
Waning Gibbous
Apr 22
Last Quarter
Apr 29
New
May 6
First Quarter
May 14
Full

Yesterday's Extremes

Country Highs Country Lows

Community

  • Snowy Robin
    Snowy Robin
  • Sun Pillar and Geese
    Sun Pillar and Geese
  • Showers on the Way
    Showers on the Way
  • Easter Morning Fog
    Easter Morning Fog
  • Easter Dance
    Easter Dance

WunderPhotos

Upload Photos

1,703,591 photos uploaded!

Nearby

Snow Depth

Not available.

Coastal Water Temperatures

Place Temperature
No Stations Reporting

Earthquake Activity

City Distance Mag. Time & Date
No recent earthquake activity has been reported nearby.
Minimum magnitude displayed is 2.5.

Nearby Weather Stations

There are no personal weather stations in this area.

What do you think?

We're not finished. Please let us know what you like, what you don't like, and what you are still missing.